SEGSSEST

Guest
Details From SEGS - Galapagos - Baltra
To SEST - Galapagos - San Cristobal
Flight Number -
Tags Generated
Created
Modified
Stats Distance 48 nm / 89 km
Max Altitude 0 ft / 0 m
Waypoints 2
Social Downloads 1
Likes 0
Share VATSIM

Download

Looking for another format? Having issues loading an existing format? Contact us
Advertisement - Login to hide

Notes

Generated

Route

SEGS SEST

ID Type Via Altitude Latitude Longitude Leg Dist Tot Dist Heading (true) Name
O SEGS APT - 0 ft / 0 m -0.44499˚ -90.27228˚ - 0 nm - -
O SEST APT - 0 ft / 0 m -0.90179˚ -89.61901˚ 47 nm 47 nm 125° / 125° -

Altitude Profile

Advertisement - Login to hide

SEGS

Details ICAO SEGS (GPS)
Name Galapagos - Baltra
Region Equador
Timezone Pacific/Galapagos (UTC-6.0)
Stats Elevation 207 ft / 63 m (AMSL)
Location -0.453757° -90.265914°
Runways 1
Magnetic Variation 3.487° E

METAR

SEGS 141900Z 14014KT 9999 FEW023 28/18 Q1011 A2986

Decode

TAF

Not found

Departure Runways

ID Width Length Bearing (true) Bearing (mag) Surface Threshold Offset Overrun Length
14 115 ft / 35 m 7,904 ft / 2,409 m 144.01° 140.52° Asphalt 0 ft / 0 m 330 ft / 101 m
32 115 ft / 35 m 7,904 ft / 2,409 m 324.01° 320.52° Asphalt 0 ft / 0 m 330 ft / 101 m

SEST

Details ICAO SEST (SCY)
Name Galapagos - San Cristobal
Region Equador
Timezone Pacific/Galapagos (UTC-6.0)
Stats Elevation 62 ft / 19 m (AMSL)
Location -0.910206° -89.617450°
Runways 1
Magnetic Variation 3.276° E

METAR

SEST 141900Z 19012KT 9999 FEW010 BKN015 23/19 Q1011 RMK A2985

Decode

TAF

Not found

Destination Runways

ID Width Length Bearing (true) Bearing (mag) Surface Threshold Offset Overrun Length
16 66 ft / 20 m 6,248 ft / 1,904 m 169.47° 166.19° Asphalt 0 ft / 0 m 0 ft / 0 m
34 66 ft / 20 m 6,248 ft / 1,904 m 349.47° 346.19° Asphalt 0 ft / 0 m 0 ft / 0 m

Popular Alternatives